sensor_id;sensor_type;location;lat;lon;timestamp;P1;durP1;ratioP1;P2;durP2;ratioP2
11098;SDS011;12223;42.650;23.364;2023-04-03T00:04:14;12.57;;;11.53;;
11098;SDS011;12223;42.650;23.364;2023-04-03T00:06:42;14.13;;;11.50;;
11098;SDS011;12223;42.650;23.364;2023-04-03T00:09:09;10.80;;;10.00;;
11098;SDS011;12223;42.650;23.364;2023-04-03T00:11:37;11.60;;;10.80;;
11098;SDS011;12223;42.650;23.364;2023-04-03T00:14:04;12.60;;;11.50;;
11098;SDS011;12223;42.650;23.364;2023-04-03T00:16:31;15.93;;;14.53;;
11098;SDS011;12223;42.650;23.364;2023-04-03T00:18:58;15.23;;;13.87;;
11098;SDS011;12223;42.650;23.364;2023-04-03T00:21:25;13.53;;;12.33;;
11098;SDS011;12223;42.650;23.364;2023-04-03T00:23:52;12.97;;;11.60;;
11098;SDS011;12223;42.650;23.364;2023-04-03T00:26:19;10.97;;;10.17;;
11098;SDS011;12223;42.650;23.364;2023-04-03T00:28:51;37.47;;;35.70;;
11098;SDS011;12223;42.650;23.364;2023-04-03T00:31:18;14.77;;;13.53;;
11098;SDS011;12223;42.650;23.364;2023-04-03T00:33:47;15.50;;;14.60;;
11098;SDS011;12223;42.650;23.364;2023-04-03T00:36:14;14.53;;;13.40;;
11098;SDS011;12223;42.650;23.364;2023-04-03T00:38:41;14.57;;;13.47;;
11098;SDS011;12223;42.650;23.364;2023-04-03T00:41:09;11.07;;;10.30;;
11098;SDS011;12223;42.650;23.364;2023-04-03T00:43:37;10.33;;;9.57;;
11098;SDS011;12223;42.650;23.364;2023-04-03T00:46:05;13.07;;;12.27;;
11098;SDS011;12223;42.650;23.364;2023-04-03T00:48:33;11.20;;;10.60;;
11098;SDS011;12223;42.650;23.364;2023-04-03T00:51:02;10.33;;;9.43;;
11098;SDS011;12223;42.650;23.364;2023-04-03T00:53:33;10.97;;;10.13;;
11098;SDS011;12223;42.650;23.364;2023-04-03T00:56:04;12.43;;;11.43;;
11098;SDS011;12223;42.650;23.364;2023-04-03T00:58:36;12.87;;;11.87;;
11098;SDS011;12223;42.650;23.364;2023-04-03T01:01:11;10.83;;;10.03;;
11098;SDS011;12223;42.650;23.364;2023-04-03T01:03:41;10.13;;;9.40;;
11098;SDS011;12223;42.650;23.364;2023-04-03T01:06:09;11.40;;;10.30;;
11098;SDS011;12223;42.650;23.364;2023-04-03T01:11:39;9.83;;;9.17;;
11098;SDS011;12223;42.650;23.364;2023-04-03T01:14:07;10.10;;;9.30;;
11098;SDS011;12223;42.650;23.364;2023-04-03T01:16:36;10.63;;;9.93;;
11098;SDS011;12223;42.650;23.364;2023-04-03T01:19:04;11.83;;;10.83;;
11098;SDS011;12223;42.650;23.364;2023-04-03T01:24:27;11.93;;;11.03;;
11098;SDS011;12223;42.650;23.364;2023-04-03T01:27:01;11.27;;;10.37;;
11098;SDS011;12223;42.650;23.364;2023-04-03T01:29:30;13.70;;;12.80;;
11098;SDS011;12223;42.650;23.364;2023-04-03T01:31:59;15.10;;;14.07;;
11098;SDS011;12223;42.650;23.364;2023-04-03T01:34:29;15.00;;;13.87;;
11098;SDS011;12223;42.650;23.364;2023-04-03T01:36:56;15.93;;;14.67;;
11098;SDS011;12223;42.650;23.364;2023-04-03T01:39:24;11.10;;;10.20;;
11098;SDS011;12223;42.650;23.364;2023-04-03T01:41:53;13.47;;;12.67;;
11098;SDS011;12223;42.650;23.364;2023-04-03T01:44:20;12.27;;;11.17;;
11098;SDS011;12223;42.650;23.364;2023-04-03T01:46:46;12.17;;;11.30;;
11098;SDS011;12223;42.650;23.364;2023-04-03T01:49:16;11.63;;;10.63;;
11098;SDS011;12223;42.650;23.364;2023-04-03T01:51:43;11.30;;;10.40;;
11098;SDS011;12223;42.650;23.364;2023-04-03T01:54:10;11.00;;;10.00;;
11098;SDS011;12223;42.650;23.364;2023-04-03T01:56:46;9.27;;;8.47;;
11098;SDS011;12223;42.650;23.364;2023-04-03T01:59:13;10.40;;;9.60;;
11098;SDS011;12223;42.650;23.364;2023-04-03T02:01:42;11.43;;;10.50;;
11098;SDS011;12223;42.650;23.364;2023-04-03T02:04:17;10.13;;;9.43;;
11098;SDS011;12223;42.650;23.364;2023-04-03T02:06:45;9.40;;;8.63;;
11098;SDS011;12223;42.650;23.364;2023-04-03T02:09:12;13.47;;;12.37;;
11098;SDS011;12223;42.650;23.364;2023-04-03T02:11:39;10.97;;;10.33;;
11098;SDS011;12223;42.650;23.364;2023-04-03T02:14:07;10.73;;;9.87;;
11098;SDS011;12223;42.650;23.364;2023-04-03T02:16:34;9.07;;;8.43;;
11098;SDS011;12223;42.650;23.364;2023-04-03T02:19:01;9.87;;;9.17;;
11098;SDS011;12223;42.650;23.364;2023-04-03T02:21:29;21.57;;;20.27;;
11098;SDS011;12223;42.650;23.364;2023-04-03T02:23:56;15.63;;;14.27;;
11098;SDS011;12223;42.650;23.364;2023-04-03T02:26:23;16.20;;;15.20;;
11098;SDS011;12223;42.650;23.364;2023-04-03T02:28:51;11.00;;;10.10;;
11098;SDS011;12223;42.650;23.364;2023-04-03T02:31:18;12.13;;;11.30;;
11098;SDS011;12223;42.650;23.364;2023-04-03T02:33:45;14.13;;;13.33;;
11098;SDS011;12223;42.650;23.364;2023-04-03T02:36:12;9.93;;;9.23;;
11098;SDS011;12223;42.650;23.364;2023-04-03T02:38:41;9.30;;;8.70;;
11098;SDS011;12223;42.650;23.364;2023-04-03T02:41:11;10.07;;;9.13;;
11098;SDS011;12223;42.650;23.364;2023-04-03T02:43:38;19.63;;;18.43;;
11098;SDS011;12223;42.650;23.364;2023-04-03T02:46:06;13.87;;;12.97;;
11098;SDS011;12223;42.650;23.364;2023-04-03T02:48:34;12.87;;;11.97;;
11098;SDS011;12223;42.650;23.364;2023-04-03T02:51:00;18.07;;;17.07;;
11098;SDS011;12223;42.650;23.364;2023-04-03T02:53:29;12.70;;;11.90;;
11098;SDS011;12223;42.650;23.364;2023-04-03T02:55:58;14.00;;;13.10;;
11098;SDS011;12223;42.650;23.364;2023-04-03T02:58:26;11.53;;;10.73;;
11098;SDS011;12223;42.650;23.364;2023-04-03T03:00:54;15.60;;;14.60;;
11098;SDS011;12223;42.650;23.364;2023-04-03T03:03:21;29.17;;;27.67;;
11098;SDS011;12223;42.650;23.364;2023-04-03T03:05:49;11.40;;;10.40;;
11098;SDS011;12223;42.650;23.364;2023-04-03T03:08:17;13.27;;;12.27;;
11098;SDS011;12223;42.650;23.364;2023-04-03T03:10:45;16.27;;;15.27;;
11098;SDS011;12223;42.650;23.364;2023-04-03T03:16:06;16.97;;;16.07;;
11098;SDS011;12223;42.650;23.364;2023-04-03T03:18:35;18.30;;;17.17;;
11098;SDS011;12223;42.650;23.364;2023-04-03T03:21:03;14.20;;;13.10;;
11098;SDS011;12223;42.650;23.364;2023-04-03T03:23:31;12.70;;;11.80;;
11098;SDS011;12223;42.650;23.364;2023-04-03T03:25:59;17.30;;;16.10;;
11098;SDS011;12223;42.650;23.364;2023-04-03T03:28:28;14.07;;;13.03;;
11098;SDS011;12223;42.650;23.364;2023-04-03T03:30:57;14.83;;;14.03;;
11098;SDS011;12223;42.650;23.364;2023-04-03T03:33:25;19.73;;;18.70;;
11098;SDS011;12223;42.650;23.364;2023-04-03T03:35:52;13.53;;;12.50;;
11098;SDS011;12223;42.650;23.364;2023-04-03T03:38:19;18.40;;;17.40;;
11098;SDS011;12223;42.650;23.364;2023-04-03T03:40:47;13.27;;;12.10;;
11098;SDS011;12223;42.650;23.364;2023-04-03T03:43:15;10.63;;;9.73;;
11098;SDS011;12223;42.650;23.364;2023-04-03T03:45:44;10.23;;;9.50;;
11098;SDS011;12223;42.650;23.364;2023-04-03T03:48:17;15.87;;;14.80;;
11098;SDS011;12223;42.650;23.364;2023-04-03T03:50:46;17.47;;;16.20;;
11098;SDS011;12223;42.650;23.364;2023-04-03T03:53:18;13.33;;;10.93;;
11098;SDS011;12223;42.650;23.364;2023-04-03T03:55:46;14.30;;;13.20;;
11098;SDS011;12223;42.650;23.364;2023-04-03T03:58:14;12.63;;;11.70;;
11098;SDS011;12223;42.650;23.364;2023-04-03T04:00:41;12.60;;;11.43;;
11098;SDS011;12223;42.650;23.364;2023-04-03T04:03:08;13.93;;;12.80;;
11098;SDS011;12223;42.650;23.364;2023-04-03T04:05:36;12.37;;;11.27;;
11098;SDS011;12223;42.650;23.364;2023-04-03T04:08:04;14.63;;;13.17;;
11098;SDS011;12223;42.650;23.364;2023-04-03T04:10:31;16.73;;;15.43;;
11098;SDS011;12223;42.650;23.364;2023-04-03T04:12:59;11.37;;;10.37;;
11098;SDS011;12223;42.650;23.364;2023-04-03T04:15:27;13.00;;;11.67;;
11098;SDS011;12223;42.650;23.364;2023-04-03T04:17:54;11.13;;;9.57;;
11098;SDS011;12223;42.650;23.364;2023-04-03T04:23:14;16.83;;;12.37;;
11098;SDS011;12223;42.650;23.364;2023-04-03T04:25:46;19.33;;;13.47;;
11098;SDS011;12223;42.650;23.364;2023-04-03T04:28:14;14.07;;;11.83;;
11098;SDS011;12223;42.650;23.364;2023-04-03T04:30:42;15.67;;;14.57;;
11098;SDS011;12223;42.650;23.364;2023-04-03T04:33:14;12.90;;;11.80;;
11098;SDS011;12223;42.650;23.364;2023-04-03T04:35:41;13.20;;;11.83;;
11098;SDS011;12223;42.650;23.364;2023-04-03T04:38:10;13.90;;;12.93;;
11098;SDS011;12223;42.650;23.364;2023-04-03T04:40:38;13.63;;;11.90;;
11098;SDS011;12223;42.650;23.364;2023-04-03T04:43:06;29.47;;;26.97;;
11098;SDS011;12223;42.650;23.364;2023-04-03T04:45:34;21.30;;;17.70;;
11098;SDS011;12223;42.650;23.364;2023-04-03T04:48:02;26.33;;;13.27;;
11098;SDS011;12223;42.650;23.364;2023-04-03T04:50:30;26.13;;;17.67;;
11098;SDS011;12223;42.650;23.364;2023-04-03T04:52:59;22.53;;;20.27;;
11098;SDS011;12223;42.650;23.364;2023-04-03T04:55:26;25.60;;;20.87;;
11098;SDS011;12223;42.650;23.364;2023-04-03T04:57:53;27.87;;;14.77;;
11098;SDS011;12223;42.650;23.364;2023-04-03T05:00:20;23.80;;;21.37;;
11098;SDS011;12223;42.650;23.364;2023-04-03T05:02:52;22.30;;;20.27;;
11098;SDS011;12223;42.650;23.364;2023-04-03T05:05:19;27.63;;;21.93;;
11098;SDS011;12223;42.650;23.364;2023-04-03T05:07:50;14.23;;;12.80;;
11098;SDS011;12223;42.650;23.364;2023-04-03T05:10:22;43.77;;;41.27;;
11098;SDS011;12223;42.650;23.364;2023-04-03T05:12:49;19.03;;;17.23;;
11098;SDS011;12223;42.650;23.364;2023-04-03T05:15:16;19.67;;;17.83;;
11098;SDS011;12223;42.650;23.364;2023-04-03T05:17:43;39.43;;;36.53;;
11098;SDS011;12223;42.650;23.364;2023-04-03T05:20:10;23.47;;;18.47;;
11098;SDS011;12223;42.650;23.364;2023-04-03T05:22:37;19.57;;;17.57;;
11098;SDS011;12223;42.650;23.364;2023-04-03T05:25:05;29.00;;;19.47;;
11098;SDS011;12223;42.650;23.364;2023-04-03T05:27:33;31.23;;;27.97;;
11098;SDS011;12223;42.650;23.364;2023-04-03T05:30:00;35.97;;;18.07;;
11098;SDS011;12223;42.650;23.364;2023-04-03T05:32:27;27.67;;;25.00;;
11098;SDS011;12223;42.650;23.364;2023-04-03T05:34:54;25.23;;;19.00;;
11098;SDS011;12223;42.650;23.364;2023-04-03T05:37:21;22.93;;;21.17;;
11098;SDS011;12223;42.650;23.364;2023-04-03T05:39:48;36.83;;;34.37;;
11098;SDS011;12223;42.650;23.364;2023-04-03T05:42:16;20.53;;;17.07;;
11098;SDS011;12223;42.650;23.364;2023-04-03T05:44:45;24.43;;;22.03;;
11098;SDS011;12223;42.650;23.364;2023-04-03T05:47:12;37.67;;;34.37;;
11098;SDS011;12223;42.650;23.364;2023-04-03T05:49:39;52.50;;;49.27;;
11098;SDS011;12223;42.650;23.364;2023-04-03T05:52:06;22.13;;;19.50;;
11098;SDS011;12223;42.650;23.364;2023-04-03T05:54:43;49.43;;;45.53;;
11098;SDS011;12223;42.650;23.364;2023-04-03T05:57:13;26.07;;;23.43;;
11098;SDS011;12223;42.650;23.364;2023-04-03T05:59:41;38.93;;;35.13;;
11098;SDS011;12223;42.650;23.364;2023-04-03T06:02:10;40.67;;;37.60;;
11098;SDS011;12223;42.650;23.364;2023-04-03T06:04:38;23.83;;;19.47;;
11098;SDS011;12223;42.650;23.364;2023-04-03T06:07:05;24.03;;;18.37;;
11098;SDS011;12223;42.650;23.364;2023-04-03T06:09:32;40.93;;;37.87;;
11098;SDS011;12223;42.650;23.364;2023-04-03T06:12:00;69.50;;;65.53;;
11098;SDS011;12223;42.650;23.364;2023-04-03T06:14:28;48.13;;;44.83;;
11098;SDS011;12223;42.650;23.364;2023-04-03T06:16:55;67.63;;;63.70;;
11098;SDS011;12223;42.650;23.364;2023-04-03T06:19:23;107.40;;;102.43;;
11098;SDS011;12223;42.650;23.364;2023-04-03T06:21:51;234.27;;;224.73;;
11098;SDS011;12223;42.650;23.364;2023-04-03T06:24:17;245.27;;;235.10;;
11098;SDS011;12223;42.650;23.364;2023-04-03T06:26:45;90.13;;;85.70;;
11098;SDS011;12223;42.650;23.364;2023-04-03T06:29:13;66.53;;;62.90;;
11098;SDS011;12223;42.650;23.364;2023-04-03T06:31:45;26.57;;;24.07;;
11098;SDS011;12223;42.650;23.364;2023-04-03T06:34:12;24.63;;;22.20;;
11098;SDS011;12223;42.650;23.364;2023-04-03T06:36:43;24.20;;;18.17;;
11098;SDS011;12223;42.650;23.364;2023-04-03T06:39:11;17.50;;;11.93;;
11098;SDS011;12223;42.650;23.364;2023-04-03T06:41:41;23.00;;;21.10;;
11098;SDS011;12223;42.650;23.364;2023-04-03T06:44:07;33.47;;;31.00;;
11098;SDS011;12223;42.650;23.364;2023-04-03T06:46:36;17.23;;;15.67;;
11098;SDS011;12223;42.650;23.364;2023-04-03T06:49:04;17.00;;;15.30;;
11098;SDS011;12223;42.650;23.364;2023-04-03T06:51:33;28.17;;;14.63;;
11098;SDS011;12223;42.650;23.364;2023-04-03T06:54:03;15.67;;;12.80;;
11098;SDS011;12223;42.650;23.364;2023-04-03T06:56:32;18.03;;;16.43;;
11098;SDS011;12223;42.650;23.364;2023-04-03T06:58:58;22.90;;;11.03;;
11098;SDS011;12223;42.650;23.364;2023-04-03T07:01:26;15.30;;;11.37;;
11098;SDS011;12223;42.650;23.364;2023-04-03T07:03:55;14.93;;;13.03;;
11098;SDS011;12223;42.650;23.364;2023-04-03T07:06:22;12.53;;;10.80;;
11098;SDS011;12223;42.650;23.364;2023-04-03T07:09:02;12.77;;;11.43;;
11098;SDS011;12223;42.650;23.364;2023-04-03T07:11:29;16.67;;;12.87;;
11098;SDS011;12223;42.650;23.364;2023-04-03T07:13:56;17.53;;;16.13;;
11098;SDS011;12223;42.650;23.364;2023-04-03T07:16:25;36.77;;;30.13;;
11098;SDS011;12223;42.650;23.364;2023-04-03T07:18:53;24.80;;;19.57;;
11098;SDS011;12223;42.650;23.364;2023-04-03T07:21:20;34.97;;;32.53;;
11098;SDS011;12223;42.650;23.364;2023-04-03T07:23:47;33.77;;;30.93;;
11098;SDS011;12223;42.650;23.364;2023-04-03T07:26:15;35.93;;;33.10;;
11098;SDS011;12223;42.650;23.364;2023-04-03T07:28:42;46.90;;;43.87;;
11098;SDS011;12223;42.650;23.364;2023-04-03T07:31:10;26.27;;;24.37;;
11098;SDS011;12223;42.650;23.364;2023-04-03T07:33:39;19.23;;;14.47;;
11098;SDS011;12223;42.650;23.364;2023-04-03T07:36:11;36.80;;;34.37;;
11098;SDS011;12223;42.650;23.364;2023-04-03T07:38:43;14.90;;;11.53;;
11098;SDS011;12223;42.650;23.364;2023-04-03T07:41:11;17.60;;;15.90;;
11098;SDS011;12223;42.650;23.364;2023-04-03T07:43:41;55.53;;;52.13;;
11098;SDS011;12223;42.650;23.364;2023-04-03T07:46:08;21.73;;;14.40;;
11098;SDS011;12223;42.650;23.364;2023-04-03T07:48:36;45.67;;;41.77;;
11098;SDS011;12223;42.650;23.364;2023-04-03T07:51:03;26.10;;;20.70;;
11098;SDS011;12223;42.650;23.364;2023-04-03T07:53:30;22.50;;;20.03;;
11098;SDS011;12223;42.650;23.364;2023-04-03T07:55:58;27.90;;;19.93;;
11098;SDS011;12223;42.650;23.364;2023-04-03T07:58:26;33.40;;;20.57;;
11098;SDS011;12223;42.650;23.364;2023-04-03T08:00:56;35.23;;;31.73;;
11098;SDS011;12223;42.650;23.364;2023-04-03T08:03:24;42.07;;;38.07;;
11098;SDS011;12223;42.650;23.364;2023-04-03T08:05:52;29.73;;;27.03;;
11098;SDS011;12223;42.650;23.364;2023-04-03T08:08:20;35.03;;;31.87;;
11098;SDS011;12223;42.650;23.364;2023-04-03T08:10:48;27.30;;;24.77;;
11098;SDS011;12223;42.650;23.364;2023-04-03T08:13:16;20.33;;;17.47;;
11098;SDS011;12223;42.650;23.364;2023-04-03T08:15:43;21.83;;;17.47;;
11098;SDS011;12223;42.650;23.364;2023-04-03T08:18:11;25.83;;;17.60;;
11098;SDS011;12223;42.650;23.364;2023-04-03T08:20:38;23.30;;;20.77;;
11098;SDS011;12223;42.650;23.364;2023-04-03T08:23:06;29.27;;;19.30;;
11098;SDS011;12223;42.650;23.364;2023-04-03T08:25:33;20.83;;;16.40;;
11098;SDS011;12223;42.650;23.364;2023-04-03T08:28:01;27.30;;;16.63;;
11098;SDS011;12223;42.650;23.364;2023-04-03T08:30:28;18.10;;;16.03;;
11098;SDS011;12223;42.650;23.364;2023-04-03T08:32:55;28.23;;;17.83;;
11098;SDS011;12223;42.650;23.364;2023-04-03T08:35:26;27.93;;;25.03;;
11098;SDS011;12223;42.650;23.364;2023-04-03T08:37:53;25.93;;;17.07;;
11098;SDS011;12223;42.650;23.364;2023-04-03T08:40:20;22.63;;;20.43;;
11098;SDS011;12223;42.650;23.364;2023-04-03T08:42:49;31.27;;;28.27;;
11098;SDS011;12223;42.650;23.364;2023-04-03T08:45:25;32.93;;;29.57;;
11098;SDS011;12223;42.650;23.364;2023-04-03T08:47:58;23.83;;;21.33;;
11098;SDS011;12223;42.650;23.364;2023-04-03T08:50:35;16.40;;;14.40;;
11098;SDS011;12223;42.650;23.364;2023-04-03T08:53:05;18.37;;;15.47;;
11098;SDS011;12223;42.650;23.364;2023-04-03T08:55:40;18.67;;;15.70;;
11098;SDS011;12223;42.650;23.364;2023-04-03T08:58:10;22.50;;;16.10;;
11098;SDS011;12223;42.650;23.364;2023-04-03T09:00:43;45.00;;;41.57;;
11098;SDS011;12223;42.650;23.364;2023-04-03T09:03:12;45.77;;;41.50;;
11098;SDS011;12223;42.650;23.364;2023-04-03T09:05:43;25.80;;;16.13;;
11098;SDS011;12223;42.650;23.364;2023-04-03T09:08:24;16.40;;;11.43;;
11098;SDS011;12223;42.650;23.364;2023-04-03T09:11:03;16.80;;;12.70;;
11098;SDS011;12223;42.650;23.364;2023-04-03T09:13:40;17.03;;;12.87;;
11098;SDS011;12223;42.650;23.364;2023-04-03T09:16:20;14.73;;;12.63;;
11098;SDS011;12223;42.650;23.364;2023-04-03T09:18:56;21.23;;;12.13;;
11098;SDS011;12223;42.650;23.364;2023-04-03T09:21:31;14.93;;;12.60;;
11098;SDS011;12223;42.650;23.364;2023-04-03T09:24:03;16.17;;;12.27;;
11098;SDS011;12223;42.650;23.364;2023-04-03T09:26:36;15.77;;;12.27;;
11098;SDS011;12223;42.650;23.364;2023-04-03T09:29:08;17.33;;;12.50;;
11098;SDS011;12223;42.650;23.364;2023-04-03T09:31:42;12.52;;;11.38;;
11098;SDS011;12223;42.650;23.364;2023-04-03T09:34:15;15.23;;;13.80;;
11098;SDS011;12223;42.650;23.364;2023-04-03T09:36:49;16.10;;;14.33;;
11098;SDS011;12223;42.650;23.364;2023-04-03T09:39:18;12.67;;;9.87;;
11098;SDS011;12223;42.650;23.364;2023-04-03T09:41:55;10.23;;;9.27;;
11098;SDS011;12223;42.650;23.364;2023-04-03T09:44:25;13.73;;;9.87;;
11098;SDS011;12223;42.650;23.364;2023-04-03T09:46:54;20.50;;;10.30;;
11098;SDS011;12223;42.650;23.364;2023-04-03T09:49:21;15.57;;;8.53;;
11098;SDS011;12223;42.650;23.364;2023-04-03T09:51:50;7.93;;;7.23;;
11098;SDS011;12223;42.650;23.364;2023-04-03T09:54:32;6.10;;;5.60;;
11098;SDS011;12223;42.650;23.364;2023-04-03T09:57:11;11.00;;;10.23;;
11098;SDS011;12223;42.650;23.364;2023-04-03T09:59:42;11.90;;;11.10;;
11098;SDS011;12223;42.650;23.364;2023-04-03T10:02:21;11.90;;;9.23;;
11098;SDS011;12223;42.650;23.364;2023-04-03T10:04:54;11.17;;;10.40;;
11098;SDS011;12223;42.650;23.364;2023-04-03T10:07:27;13.93;;;8.20;;
11098;SDS011;12223;42.650;23.364;2023-04-03T10:09:59;17.67;;;16.47;;
11098;SDS011;12223;42.650;23.364;2023-04-03T10:12:28;13.90;;;13.10;;
11098;SDS011;12223;42.650;23.364;2023-04-03T10:14:56;15.73;;;14.43;;
11098;SDS011;12223;42.650;23.364;2023-04-03T10:17:26;26.30;;;24.77;;
11098;SDS011;12223;42.650;23.364;2023-04-03T10:20:02;13.40;;;12.33;;
11098;SDS011;12223;42.650;23.364;2023-04-03T10:22:45;12.57;;;10.63;;
11098;SDS011;12223;42.650;23.364;2023-04-03T10:25:28;10.90;;;9.73;;
11098;SDS011;12223;42.650;23.364;2023-04-03T10:28:03;13.13;;;12.20;;
11098;SDS011;12223;42.650;23.364;2023-04-03T10:30:40;26.37;;;24.90;;
11098;SDS011;12223;42.650;23.364;2023-04-03T10:33:20;22.80;;;21.10;;
11098;SDS011;12223;42.650;23.364;2023-04-03T10:36:01;11.77;;;10.80;;
11098;SDS011;12223;42.650;23.364;2023-04-03T10:38:40;11.67;;;9.07;;
11098;SDS011;12223;42.650;23.364;2023-04-03T10:41:15;13.60;;;10.10;;
11098;SDS011;12223;42.650;23.364;2023-04-03T10:43:53;8.90;;;8.20;;
11098;SDS011;12223;42.650;23.364;2023-04-03T10:46:27;13.77;;;7.40;;
11098;SDS011;12223;42.650;23.364;2023-04-03T10:49:05;7.17;;;6.57;;
11098;SDS011;12223;42.650;23.364;2023-04-03T10:51:43;8.10;;;7.63;;
11098;SDS011;12223;42.650;23.364;2023-04-03T10:54:13;12.07;;;11.43;;
11098;SDS011;12223;42.650;23.364;2023-04-03T10:56:48;26.23;;;25.10;;
11098;SDS011;12223;42.650;23.364;2023-04-03T10:59:21;28.83;;;27.23;;
11098;SDS011;12223;42.650;23.364;2023-04-03T11:01:52;12.87;;;12.10;;
11098;SDS011;12223;42.650;23.364;2023-04-03T11:04:22;25.73;;;24.53;;
11098;SDS011;12223;42.650;23.364;2023-04-03T11:06:55;70.10;;;67.30;;
11098;SDS011;12223;42.650;23.364;2023-04-03T11:09:29;14.83;;;14.03;;
11098;SDS011;12223;42.650;23.364;2023-04-03T11:12:00;7.80;;;7.30;;
11098;SDS011;12223;42.650;23.364;2023-04-03T11:14:31;12.07;;;11.07;;
11098;SDS011;12223;42.650;23.364;2023-04-03T11:17:11;7.10;;;6.67;;
11098;SDS011;12223;42.650;23.364;2023-04-03T11:19:49;7.00;;;6.50;;
11098;SDS011;12223;42.650;23.364;2023-04-03T11:22:22;68.90;;;66.07;;
11098;SDS011;12223;42.650;23.364;2023-04-03T11:24:56;66.20;;;63.60;;
11098;SDS011;12223;42.650;23.364;2023-04-03T11:27:30;48.67;;;46.53;;
11098;SDS011;12223;42.650;23.364;2023-04-03T11:30:06;13.17;;;12.40;;
11098;SDS011;12223;42.650;23.364;2023-04-03T11:32:55;8.90;;;8.20;;
11098;SDS011;12223;42.650;23.364;2023-04-03T11:35:29;9.63;;;8.80;;
11098;SDS011;12223;42.650;23.364;2023-04-03T11:37:57;13.63;;;12.60;;
11098;SDS011;12223;42.650;23.364;2023-04-03T11:40:29;13.20;;;12.50;;
11098;SDS011;12223;42.650;23.364;2023-04-03T11:43:04;9.10;;;8.50;;
11098;SDS011;12223;42.650;23.364;2023-04-03T11:45:37;12.43;;;11.73;;
11098;SDS011;12223;42.650;23.364;2023-04-03T12:03:33;48.27;;;46.20;;
11098;SDS011;12223;42.650;23.364;2023-04-03T12:09:27;17.57;;;16.30;;
11098;SDS011;12223;42.650;23.364;2023-04-03T12:12:22;26.37;;;24.93;;
11098;SDS011;12223;42.650;23.364;2023-04-03T12:14:55;44.17;;;42.23;;
11098;SDS011;12223;42.650;23.364;2023-04-03T12:17:22;35.93;;;34.40;;
11098;SDS011;12223;42.650;23.364;2023-04-03T12:19:54;20.07;;;18.97;;
11098;SDS011;12223;42.650;23.364;2023-04-03T12:22:21;32.33;;;30.80;;
11098;SDS011;12223;42.650;23.364;2023-04-03T12:24:48;29.17;;;27.80;;
11098;SDS011;12223;42.650;23.364;2023-04-03T12:27:21;20.33;;;19.30;;
11098;SDS011;12223;42.650;23.364;2023-04-03T12:29:52;23.37;;;21.93;;
11098;SDS011;12223;42.650;23.364;2023-04-03T12:32:32;9.70;;;9.00;;
11098;SDS011;12223;42.650;23.364;2023-04-03T12:35:10;31.87;;;30.37;;
11098;SDS011;12223;42.650;23.364;2023-04-03T12:38:00;21.93;;;20.83;;
11098;SDS011;12223;42.650;23.364;2023-04-03T12:40:57;14.23;;;13.30;;
11098;SDS011;12223;42.650;23.364;2023-04-03T12:43:43;23.87;;;22.47;;
11098;SDS011;12223;42.650;23.364;2023-04-03T12:46:23;53.23;;;51.00;;
11098;SDS011;12223;42.650;23.364;2023-04-03T12:48:55;14.97;;;14.17;;
11098;SDS011;12223;42.650;23.364;2023-04-03T12:51:26;17.80;;;16.60;;
11098;SDS011;12223;42.650;23.364;2023-04-03T12:54:00;24.20;;;22.67;;
11098;SDS011;12223;42.650;23.364;2023-04-03T12:56:31;19.47;;;18.33;;
11098;SDS011;12223;42.650;23.364;2023-04-03T12:59:12;27.47;;;26.03;;
11098;SDS011;12223;42.650;23.364;2023-04-03T13:01:42;31.00;;;29.47;;
11098;SDS011;12223;42.650;23.364;2023-04-03T13:04:10;31.13;;;29.67;;
11098;SDS011;12223;42.650;23.364;2023-04-03T13:06:39;101.17;;;97.17;;
11098;SDS011;12223;42.650;23.364;2023-04-03T13:09:17;19.57;;;18.57;;
11098;SDS011;12223;42.650;23.364;2023-04-03T13:11:48;34.87;;;33.30;;
11098;SDS011;12223;42.650;23.364;2023-04-03T13:14:18;39.80;;;37.90;;
11098;SDS011;12223;42.650;23.364;2023-04-03T13:17:00;45.50;;;43.23;;
11098;SDS011;12223;42.650;23.364;2023-04-03T13:19:32;56.73;;;54.43;;
11098;SDS011;12223;42.650;23.364;2023-04-03T13:22:01;134.77;;;129.27;;
11098;SDS011;12223;42.650;23.364;2023-04-03T13:24:32;61.10;;;58.50;;
11098;SDS011;12223;42.650;23.364;2023-04-03T13:27:01;115.03;;;110.60;;
11098;SDS011;12223;42.650;23.364;2023-04-03T13:29:33;98.93;;;94.80;;
11098;SDS011;12223;42.650;23.364;2023-04-03T13:32:03;85.73;;;82.23;;
11098;SDS011;12223;42.650;23.364;2023-04-03T13:34:35;118.13;;;113.17;;
11098;SDS011;12223;42.650;23.364;2023-04-03T13:37:04;177.43;;;170.27;;
11098;SDS011;12223;42.650;23.364;2023-04-03T13:39:32;190.93;;;183.17;;
11098;SDS011;12223;42.650;23.364;2023-04-03T13:42:14;252.43;;;241.97;;
11098;SDS011;12223;42.650;23.364;2023-04-03T13:44:42;103.37;;;99.03;;
11098;SDS011;12223;42.650;23.364;2023-04-03T13:47:19;135.63;;;130.20;;
11098;SDS011;12223;42.650;23.364;2023-04-03T13:49:58;169.00;;;161.90;;
11098;SDS011;12223;42.650;23.364;2023-04-03T13:52:27;116.30;;;111.63;;
11098;SDS011;12223;42.650;23.364;2023-04-03T13:54:58;173.83;;;167.00;;
11098;SDS011;12223;42.650;23.364;2023-04-03T13:57:28;153.00;;;147.07;;
11098;SDS011;12223;42.650;23.364;2023-04-03T13:59:56;134.03;;;128.60;;
11098;SDS011;12223;42.650;23.364;2023-04-03T14:02:28;157.63;;;151.43;;
11098;SDS011;12223;42.650;23.364;2023-04-03T14:04:57;116.23;;;111.47;;
11098;SDS011;12223;42.650;23.364;2023-04-03T14:07:27;203.53;;;195.20;;
11098;SDS011;12223;42.650;23.364;2023-04-03T14:09:55;95.67;;;91.43;;
11098;SDS011;12223;42.650;23.364;2023-04-03T14:12:24;64.27;;;61.37;;
11098;SDS011;12223;42.650;23.364;2023-04-03T14:14:53;77.90;;;74.57;;
11098;SDS011;12223;42.650;23.364;2023-04-03T14:17:22;60.70;;;58.00;;
11098;SDS011;12223;42.650;23.364;2023-04-03T14:19:54;53.97;;;51.33;;
11098;SDS011;12223;42.650;23.364;2023-04-03T14:22:22;61.27;;;58.47;;
11098;SDS011;12223;42.650;23.364;2023-04-03T14:24:50;70.80;;;67.87;;
11098;SDS011;12223;42.650;23.364;2023-04-03T14:27:19;141.63;;;135.40;;
11098;SDS011;12223;42.650;23.364;2023-04-03T14:29:48;89.90;;;85.97;;
11098;SDS011;12223;42.650;23.364;2023-04-03T14:32:18;130.33;;;124.83;;
11098;SDS011;12223;42.650;23.364;2023-04-03T14:34:48;81.23;;;77.60;;
11098;SDS011;12223;42.650;23.364;2023-04-03T14:37:16;77.10;;;73.87;;
11098;SDS011;12223;42.650;23.364;2023-04-03T14:39:45;97.57;;;93.53;;
11098;SDS011;12223;42.650;23.364;2023-04-03T14:42:13;51.53;;;49.03;;
11098;SDS011;12223;42.650;23.364;2023-04-03T14:44:43;47.17;;;44.90;;
11098;SDS011;12223;42.650;23.364;2023-04-03T14:47:11;49.47;;;47.07;;
11098;SDS011;12223;42.650;23.364;2023-04-03T14:49:39;66.67;;;63.70;;
11098;SDS011;12223;42.650;23.364;2023-04-03T14:52:09;41.73;;;39.70;;
11098;SDS011;12223;42.650;23.364;2023-04-03T14:54:44;49.77;;;47.17;;
11098;SDS011;12223;42.650;23.364;2023-04-03T14:57:12;89.83;;;85.83;;
11098;SDS011;12223;42.650;23.364;2023-04-03T14:59:40;104.93;;;100.23;;